Geraldine, AL

6:17 AM CST on November 23, 2014 (GMT -0600)
Rock Creek Bloodhounds | Change Station
CLOSE
Current Station
Personal Weather Station
Location: Fort Payne, AL
Elevation: 1162 ft
Nearby Weather Stations

Elev 1162 ft 34.41 °N, 85.88 °W | Updated 5 seconds ago

Overcast
Overcast
49.8 °F
Feels Like 47 °F
N
7.8
Wind Variable Wind from NE
Gusts 7.8 mph

Today
High -- | Low -- °F
--% Chance of Precip.
Yesterday
High -- | Low -- °F
Precip. -- in
6:24 AM 4:35 PM
New Moon, 1% visible
Pressure 29.93 in
Visibility 10.0 miles
Clouds Overcast 900 ft
Windchill 47 °F
Dew Point 46 °F
Humidity 87%
Rainfall 0.02 in
Snow Depth Not available.
UV 0 out of 12
Pollen .10 out of 12
Air Quality Not available.
Flu Activity Not available.
METAR K8A0 231155Z AUTO 11008G17KT 10SM OVC009 09/09 A2993 RMK AO2

More Conditions Fewer Conditions

Pressure 29.93 in
Visibility 10.0 miles
Clouds Overcast 900 ft
Windchill 47 °F
Dew Point 46 °F
Humidity 87%
Rainfall 0.02 in
Snow Depth Not available.
UV 0 out of 12
Pollen .10 out of 12
Air Quality Not available.
Flu Activity Not available.
METAR K8A0 231155Z AUTO 11008G17KT 10SM OVC009 09/09 A2993 RMK AO2

More Conditions Fewer Conditions

10-Day Weather Forecast

Almanac

Astronomy

Nov. 23, 2014 Rise Set
Actual Time
Civil Twilight
Nautical Twilight
Astronomical Twilight
Moon
Length of Visible Light
Length of Day
Tomorrow will be .
, % of the Moon is Illuminated

Today's Extremes

State Highs State Lows

Community

WunderPhotos

Upload Photos

1,773,041 photos uploaded!

WunderBlogs® & News

Nearby

Air Quality

  Air Quality AQ Index Pollutant
Not available.

Snow Depth

Station Depth Elevation

Earthquake Activity

City Distance Mag. Time & Date
Minimum magnitude displayed is 2.5.

Coastal Water Temperatures

Place Temperature

Nearby Weather Stations